Etusivu
METAR-TAF:

METAR-TAF

Lentoasemat :

Weno, Weno Island, Mikronesia

Leveyspiiri: 07-28N, Pituuspiiri: 151-51E, korkeus merenpinnasta: 3 m

Tämänhetkinen sää

Tämä raportti tehtiin 50 minuuttia sitten, kello 00.51 UTC
Tuuli 4 kn eri suunnista
Lämpötila 30°C
Kosteus 84%
Ilmanpaine 1009 hPa
Näkyvyys: 24.1 km
Muutamia pilviä 1400 ft:n korkeudessa
Pilvistä 28000 ft:n korkeudessa

METAR: PTKK 230051Z VRB04KT 15SM FEW014 OVC280 30/27 A2981 RMK SHRAE05 SLP096 T03000274

Aika: 11:41 (01:41 UTC)

Sääennuste

Tämä raportti tehtiin 2 tuntia ja 4 minuuttia sitten, kello 23.37 UTC
Ennuste voimassa 23. päivästä klo 00 UTC - 23. päivään klo 24 UTC
Tuuli 5 kn eri suunnista
Näkyvyys: 10 km
Muutamia pilviä 1800 ft:n korkeudessa
Hajanaisia pilviä 10000 ft:n korkeudessa
sadekuuroja näköpiirissä

TAF: PTKK 222337Z 2300/2324 VRB05KT P6SM VCSH FEW018 SCT100

Säähavainnot ja -ennusteet yli 4000 lentoasemalta (METAR- ja TAF-raportit).

Käytössä olevat sääasemat on merkitty karttaan keltaisilla ja punaisilla pisteillä.

Aseta hiiri pisteen päälle nähdäksesi sääaseman nimen.

Klikkaa sitten nähdäksesi säähavainnot ja -ennusteet.

Kartan vaihtaminen: klikkaa mustalla rastilla varustettuja vihreitä pisteitä, niin voit zoomata sisään; viivalla varustettua vihreää pistettä, niin voit zoomata ulos tai vihreitä nuolia, niin pääset viereisille kartoille.


METAR-TAF: